sensor_id;sensor_type;location;lat;lon;timestamp;temperature;humidity
4461;DHT22;2243;48.812;9.232;2023-02-28T00:00:50;-0.10;99.20
4461;DHT22;2243;48.812;9.232;2023-02-28T00:03:21;-0.10;99.10
4461;DHT22;2243;48.812;9.232;2023-02-28T00:05:52;-0.10;99.20
4461;DHT22;2243;48.812;9.232;2023-02-28T00:08:23;0.00;99.10
4461;DHT22;2243;48.812;9.232;2023-02-28T00:10:54;0.00;99.30
4461;DHT22;2243;48.812;9.232;2023-02-28T00:13:24;0.00;99.40
4461;DHT22;2243;48.812;9.232;2023-02-28T00:16:01;0.00;99.20
4461;DHT22;2243;48.812;9.232;2023-02-28T00:18:36;-0.10;99.30
4461;DHT22;2243;48.812;9.232;2023-02-28T00:21:07;-0.10;99.40
4461;DHT22;2243;48.812;9.232;2023-02-28T00:23:39;-0.10;99.30
4461;DHT22;2243;48.812;9.232;2023-02-28T00:26:10;-0.20;99.50
4461;DHT22;2243;48.812;9.232;2023-02-28T00:28:41;-0.10;99.60
4461;DHT22;2243;48.812;9.232;2023-02-28T00:31:12;0.00;99.50
4461;DHT22;2243;48.812;9.232;2023-02-28T00:33:43;0.00;99.30
4461;DHT22;2243;48.812;9.232;2023-02-28T00:36:14;0.00;99.30
4461;DHT22;2243;48.812;9.232;2023-02-28T00:38:45;-0.10;99.50
4461;DHT22;2243;48.812;9.232;2023-02-28T00:41:16;-0.20;99.70
4461;DHT22;2243;48.812;9.232;2023-02-28T00:43:47;-0.10;99.60
4461;DHT22;2243;48.812;9.232;2023-02-28T00:46:18;-0.10;99.70
4461;DHT22;2243;48.812;9.232;2023-02-28T00:48:49;-0.20;99.90
4461;DHT22;2243;48.812;9.232;2023-02-28T00:51:20;-0.20;99.90
4461;DHT22;2243;48.812;9.232;2023-02-28T00:53:51;-0.20;99.90
4461;DHT22;2243;48.812;9.232;2023-02-28T00:56:22;-0.20;99.90
4461;DHT22;2243;48.812;9.232;2023-02-28T00:58:53;-0.20;99.90
4461;DHT22;2243;48.812;9.232;2023-02-28T01:01:24;-0.30;99.90
4461;DHT22;2243;48.812;9.232;2023-02-28T01:03:55;-0.30;99.90
4461;DHT22;2243;48.812;9.232;2023-02-28T01:06:26;-0.40;99.90
4461;DHT22;2243;48.812;9.232;2023-02-28T01:08:57;-0.50;99.90
4461;DHT22;2243;48.812;9.232;2023-02-28T01:11:29;-0.50;99.90
4461;DHT22;2243;48.812;9.232;2023-02-28T01:14:01;-0.50;99.90
4461;DHT22;2243;48.812;9.232;2023-02-28T01:16:32;-0.40;99.90
4461;DHT22;2243;48.812;9.232;2023-02-28T01:19:03;-0.40;99.90
4461;DHT22;2243;48.812;9.232;2023-02-28T01:21:34;-0.40;99.90
4461;DHT22;2243;48.812;9.232;2023-02-28T01:24:06;-0.20;99.90
4461;DHT22;2243;48.812;9.232;2023-02-28T01:26:37;-0.30;99.90
4461;DHT22;2243;48.812;9.232;2023-02-28T01:29:08;-0.30;99.90
4461;DHT22;2243;48.812;9.232;2023-02-28T01:31:39;-0.20;99.90
4461;DHT22;2243;48.812;9.232;2023-02-28T01:34:10;-0.40;99.90
4461;DHT22;2243;48.812;9.232;2023-02-28T01:36:41;-0.40;99.90
4461;DHT22;2243;48.812;9.232;2023-02-28T01:39:12;-0.40;99.90
4461;DHT22;2243;48.812;9.232;2023-02-28T01:41:43;-0.40;99.90
4461;DHT22;2243;48.812;9.232;2023-02-28T01:47:35;-0.40;99.90
4461;DHT22;2243;48.812;9.232;2023-02-28T01:50:16;-0.50;99.90
4461;DHT22;2243;48.812;9.232;2023-02-28T01:52:50;-0.50;99.90
4461;DHT22;2243;48.812;9.232;2023-02-28T01:55:22;-0.50;99.90
4461;DHT22;2243;48.812;9.232;2023-02-28T01:57:57;-0.50;99.90
4461;DHT22;2243;48.812;9.232;2023-02-28T02:00:30;-0.40;99.90
4461;DHT22;2243;48.812;9.232;2023-02-28T02:03:09;-0.40;99.90
4461;DHT22;2243;48.812;9.232;2023-02-28T02:05:48;-0.40;99.90
4461;DHT22;2243;48.812;9.232;2023-02-28T02:08:24;-0.40;99.90
4461;DHT22;2243;48.812;9.232;2023-02-28T02:10:59;-0.40;99.90
4461;DHT22;2243;48.812;9.232;2023-02-28T02:26:18;-0.70;99.90
4461;DHT22;2243;48.812;9.232;2023-02-28T02:32:10;-0.60;99.90
4461;DHT22;2243;48.812;9.232;2023-02-28T02:37:40;-0.50;99.90
4461;DHT22;2243;48.812;9.232;2023-02-28T02:40:30;-0.40;99.90
4461;DHT22;2243;48.812;9.232;2023-02-28T02:43:19;-0.40;99.90
4461;DHT22;2243;48.812;9.232;2023-02-28T02:46:24;-0.50;99.90
4461;DHT22;2243;48.812;9.232;2023-02-28T02:49:01;-0.60;99.90
4461;DHT22;2243;48.812;9.232;2023-02-28T02:51:35;-0.50;99.90
4461;DHT22;2243;48.812;9.232;2023-02-28T02:56:49;-0.60;99.90
4461;DHT22;2243;48.812;9.232;2023-02-28T02:59:22;-0.50;99.90
4461;DHT22;2243;48.812;9.232;2023-02-28T03:01:57;-0.50;99.90
4461;DHT22;2243;48.812;9.232;2023-02-28T03:04:34;-0.50;99.90
4461;DHT22;2243;48.812;9.232;2023-02-28T03:07:13;-0.40;99.90
4461;DHT22;2243;48.812;9.232;2023-02-28T03:09:55;-0.30;99.90
4461;DHT22;2243;48.812;9.232;2023-02-28T03:12:49;-0.50;99.90
4461;DHT22;2243;48.812;9.232;2023-02-28T03:15:27;-0.60;99.90
4461;DHT22;2243;48.812;9.232;2023-02-28T03:18:20;-0.40;99.90
4461;DHT22;2243;48.812;9.232;2023-02-28T03:21:23;-0.30;99.90
4461;DHT22;2243;48.812;9.232;2023-02-28T03:24:11;-0.30;99.90
4461;DHT22;2243;48.812;9.232;2023-02-28T03:26:58;-0.20;99.90
4461;DHT22;2243;48.812;9.232;2023-02-28T03:29:39;-0.20;99.90
4461;DHT22;2243;48.812;9.232;2023-02-28T03:32:24;-0.10;99.90
4461;DHT22;2243;48.812;9.232;2023-02-28T03:35:02;-0.10;99.90
4461;DHT22;2243;48.812;9.232;2023-02-28T03:37:42;-0.10;99.90
4461;DHT22;2243;48.812;9.232;2023-02-28T03:40:19;-0.20;99.90
4461;DHT22;2243;48.812;9.232;2023-02-28T03:42:58;-0.20;99.90
4461;DHT22;2243;48.812;9.232;2023-02-28T03:45:35;-0.10;99.90
4461;DHT22;2243;48.812;9.232;2023-02-28T03:48:25;-0.10;99.90
4461;DHT22;2243;48.812;9.232;2023-02-28T03:51:00;0.10;99.90
4461;DHT22;2243;48.812;9.232;2023-02-28T03:53:36;-0.10;99.90
4461;DHT22;2243;48.812;9.232;2023-02-28T03:56:19;-0.10;99.90
4461;DHT22;2243;48.812;9.232;2023-02-28T04:01:51;-0.10;99.90
4461;DHT22;2243;48.812;9.232;2023-02-28T04:04:22;-0.10;99.90
4461;DHT22;2243;48.812;9.232;2023-02-28T04:07:01;-0.30;99.90
4461;DHT22;2243;48.812;9.232;2023-02-28T04:09:34;-0.20;99.90
4461;DHT22;2243;48.812;9.232;2023-02-28T04:12:05;0.00;99.90
4461;DHT22;2243;48.812;9.232;2023-02-28T04:14:36;0.10;99.90
4461;DHT22;2243;48.812;9.232;2023-02-28T04:17:07;0.00;99.90
4461;DHT22;2243;48.812;9.232;2023-02-28T04:19:38;0.00;99.90
4461;DHT22;2243;48.812;9.232;2023-02-28T04:22:09;-0.10;99.90
4461;DHT22;2243;48.812;9.232;2023-02-28T04:24:40;0.00;99.90
4461;DHT22;2243;48.812;9.232;2023-02-28T04:27:12;-0.10;99.90
4461;DHT22;2243;48.812;9.232;2023-02-28T04:29:42;0.00;99.90
4461;DHT22;2243;48.812;9.232;2023-02-28T04:32:15;-0.10;99.90
4461;DHT22;2243;48.812;9.232;2023-02-28T04:34:46;-0.20;99.90
4461;DHT22;2243;48.812;9.232;2023-02-28T04:37:17;-0.20;99.90
4461;DHT22;2243;48.812;9.232;2023-02-28T04:39:48;-0.20;99.90
4461;DHT22;2243;48.812;9.232;2023-02-28T04:42:18;-0.20;99.90
4461;DHT22;2243;48.812;9.232;2023-02-28T04:44:49;0.00;99.90
4461;DHT22;2243;48.812;9.232;2023-02-28T04:47:20;0.00;99.90
4461;DHT22;2243;48.812;9.232;2023-02-28T04:49:51;0.10;99.90
4461;DHT22;2243;48.812;9.232;2023-02-28T04:52:22;0.30;99.90
4461;DHT22;2243;48.812;9.232;2023-02-28T04:54:53;0.30;99.90
4461;DHT22;2243;48.812;9.232;2023-02-28T04:57:24;0.20;99.90
4461;DHT22;2243;48.812;9.232;2023-02-28T04:59:55;0.10;99.90
4461;DHT22;2243;48.812;9.232;2023-02-28T05:02:26;0.20;99.90
4461;DHT22;2243;48.812;9.232;2023-02-28T05:04:57;0.30;99.90
4461;DHT22;2243;48.812;9.232;2023-02-28T05:07:28;0.30;99.90
4461;DHT22;2243;48.812;9.232;2023-02-28T05:09:58;0.50;99.90
4461;DHT22;2243;48.812;9.232;2023-02-28T05:12:29;0.60;99.90
4461;DHT22;2243;48.812;9.232;2023-02-28T05:15:00;0.60;99.90
4461;DHT22;2243;48.812;9.232;2023-02-28T05:17:32;0.70;99.90
4461;DHT22;2243;48.812;9.232;2023-02-28T05:20:04;0.70;99.90
4461;DHT22;2243;48.812;9.232;2023-02-28T05:22:45;0.70;99.90
4461;DHT22;2243;48.812;9.232;2023-02-28T05:25:20;0.60;99.90
4461;DHT22;2243;48.812;9.232;2023-02-28T05:27:54;0.30;99.90
4461;DHT22;2243;48.812;9.232;2023-02-28T05:30:25;0.20;99.90
4461;DHT22;2243;48.812;9.232;2023-02-28T05:32:56;0.20;99.90
4461;DHT22;2243;48.812;9.232;2023-02-28T05:35:26;0.20;99.90
4461;DHT22;2243;48.812;9.232;2023-02-28T05:37:57;0.10;99.90
4461;DHT22;2243;48.812;9.232;2023-02-28T05:40:28;0.10;99.90
4461;DHT22;2243;48.812;9.232;2023-02-28T05:43:00;0.20;99.90
4461;DHT22;2243;48.812;9.232;2023-02-28T05:45:31;0.20;99.90
4461;DHT22;2243;48.812;9.232;2023-02-28T05:48:02;0.40;99.90
4461;DHT22;2243;48.812;9.232;2023-02-28T05:50:32;0.30;99.90
4461;DHT22;2243;48.812;9.232;2023-02-28T05:53:03;0.20;99.90
4461;DHT22;2243;48.812;9.232;2023-02-28T05:55:35;0.10;99.90
4461;DHT22;2243;48.812;9.232;2023-02-28T05:58:06;0.10;99.90
4461;DHT22;2243;48.812;9.232;2023-02-28T06:00:37;0.20;99.90
4461;DHT22;2243;48.812;9.232;2023-02-28T06:03:11;0.20;99.90
4461;DHT22;2243;48.812;9.232;2023-02-28T06:05:42;0.20;99.90
4461;DHT22;2243;48.812;9.232;2023-02-28T06:08:13;0.20;99.90
4461;DHT22;2243;48.812;9.232;2023-02-28T06:10:44;0.30;99.90
4461;DHT22;2243;48.812;9.232;2023-02-28T06:13:15;0.30;99.90
4461;DHT22;2243;48.812;9.232;2023-02-28T06:15:46;0.40;99.90
4461;DHT22;2243;48.812;9.232;2023-02-28T06:18:17;0.30;99.90
4461;DHT22;2243;48.812;9.232;2023-02-28T06:20:54;0.40;99.90
4461;DHT22;2243;48.812;9.232;2023-02-28T06:23:26;0.30;99.90
4461;DHT22;2243;48.812;9.232;2023-02-28T06:25:56;0.40;99.90
4461;DHT22;2243;48.812;9.232;2023-02-28T06:28:28;0.40;99.90
4461;DHT22;2243;48.812;9.232;2023-02-28T06:31:07;0.50;99.90
4461;DHT22;2243;48.812;9.232;2023-02-28T06:33:40;0.40;99.90
4461;DHT22;2243;48.812;9.232;2023-02-28T06:36:12;0.50;99.90
4461;DHT22;2243;48.812;9.232;2023-02-28T06:38:44;0.60;99.90
4461;DHT22;2243;48.812;9.232;2023-02-28T06:41:15;0.60;99.90
4461;DHT22;2243;48.812;9.232;2023-02-28T06:43:46;0.70;99.90
4461;DHT22;2243;48.812;9.232;2023-02-28T06:46:17;0.70;99.90
4461;DHT22;2243;48.812;9.232;2023-02-28T06:48:49;0.60;99.90
4461;DHT22;2243;48.812;9.232;2023-02-28T06:51:20;0.70;99.90
4461;DHT22;2243;48.812;9.232;2023-02-28T06:53:52;0.60;99.90
4461;DHT22;2243;48.812;9.232;2023-02-28T06:56:23;0.50;99.90
4461;DHT22;2243;48.812;9.232;2023-02-28T06:58:54;0.60;99.90
4461;DHT22;2243;48.812;9.232;2023-02-28T07:01:26;0.60;99.90
4461;DHT22;2243;48.812;9.232;2023-02-28T07:03:59;0.70;99.90
4461;DHT22;2243;48.812;9.232;2023-02-28T07:06:31;0.70;99.90
4461;DHT22;2243;48.812;9.232;2023-02-28T07:09:02;0.70;99.90
4461;DHT22;2243;48.812;9.232;2023-02-28T07:11:34;0.70;99.90
4461;DHT22;2243;48.812;9.232;2023-02-28T07:14:05;0.60;99.90
4461;DHT22;2243;48.812;9.232;2023-02-28T07:16:37;0.60;99.90
4461;DHT22;2243;48.812;9.232;2023-02-28T07:19:08;0.50;99.90
4461;DHT22;2243;48.812;9.232;2023-02-28T07:21:39;0.50;99.90
4461;DHT22;2243;48.812;9.232;2023-02-28T07:24:10;0.50;99.90
4461;DHT22;2243;48.812;9.232;2023-02-28T07:26:41;0.50;99.90
4461;DHT22;2243;48.812;9.232;2023-02-28T07:29:15;0.70;99.90
4461;DHT22;2243;48.812;9.232;2023-02-28T07:31:46;0.70;99.90
4461;DHT22;2243;48.812;9.232;2023-02-28T07:34:17;0.70;99.90
4461;DHT22;2243;48.812;9.232;2023-02-28T07:36:54;0.70;99.90
4461;DHT22;2243;48.812;9.232;2023-02-28T07:39:25;0.70;99.90
4461;DHT22;2243;48.812;9.232;2023-02-28T07:41:56;0.70;99.90
4461;DHT22;2243;48.812;9.232;2023-02-28T07:44:27;0.90;99.90
4461;DHT22;2243;48.812;9.232;2023-02-28T07:46:58;0.80;99.90
4461;DHT22;2243;48.812;9.232;2023-02-28T07:49:29;0.80;99.90
4461;DHT22;2243;48.812;9.232;2023-02-28T07:52:00;0.70;99.90
4461;DHT22;2243;48.812;9.232;2023-02-28T07:54:32;0.60;99.90
4461;DHT22;2243;48.812;9.232;2023-02-28T07:57:03;0.70;99.90
4461;DHT22;2243;48.812;9.232;2023-02-28T07:59:34;0.70;99.90
4461;DHT22;2243;48.812;9.232;2023-02-28T08:02:05;0.80;99.90
4461;DHT22;2243;48.812;9.232;2023-02-28T08:04:36;0.80;99.90
4461;DHT22;2243;48.812;9.232;2023-02-28T08:07:07;0.90;99.90
4461;DHT22;2243;48.812;9.232;2023-02-28T08:09:39;1.00;99.90
4461;DHT22;2243;48.812;9.232;2023-02-28T08:12:11;1.00;99.90
4461;DHT22;2243;48.812;9.232;2023-02-28T08:14:42;1.20;99.90
4461;DHT22;2243;48.812;9.232;2023-02-28T08:17:13;1.20;99.90
4461;DHT22;2243;48.812;9.232;2023-02-28T08:19:47;1.30;99.90
4461;DHT22;2243;48.812;9.232;2023-02-28T08:22:18;1.10;99.90
4461;DHT22;2243;48.812;9.232;2023-02-28T08:24:49;1.10;99.90
4461;DHT22;2243;48.812;9.232;2023-02-28T08:27:20;1.20;99.90
4461;DHT22;2243;48.812;9.232;2023-02-28T08:29:51;1.20;99.90
4461;DHT22;2243;48.812;9.232;2023-02-28T08:32:22;1.20;99.90
4461;DHT22;2243;48.812;9.232;2023-02-28T08:34:59;1.30;99.90
4461;DHT22;2243;48.812;9.232;2023-02-28T08:37:30;1.30;99.90
4461;DHT22;2243;48.812;9.232;2023-02-28T08:40:01;1.30;99.90
4461;DHT22;2243;48.812;9.232;2023-02-28T08:42:35;1.40;99.90
4461;DHT22;2243;48.812;9.232;2023-02-28T08:45:06;1.30;99.90
4461;DHT22;2243;48.812;9.232;2023-02-28T08:47:37;1.40;99.90
4461;DHT22;2243;48.812;9.232;2023-02-28T08:50:09;1.50;99.90
4461;DHT22;2243;48.812;9.232;2023-02-28T08:52:42;1.70;99.90
4461;DHT22;2243;48.812;9.232;2023-02-28T08:55:14;1.70;99.90
4461;DHT22;2243;48.812;9.232;2023-02-28T08:57:45;1.80;99.90
4461;DHT22;2243;48.812;9.232;2023-02-28T09:00:16;1.80;99.90
4461;DHT22;2243;48.812;9.232;2023-02-28T09:02:47;1.70;99.90
4461;DHT22;2243;48.812;9.232;2023-02-28T09:05:18;1.80;99.90
4461;DHT22;2243;48.812;9.232;2023-02-28T09:07:49;1.70;99.90
4461;DHT22;2243;48.812;9.232;2023-02-28T09:10:20;1.80;99.90
4461;DHT22;2243;48.812;9.232;2023-02-28T09:12:51;1.80;99.90
4461;DHT22;2243;48.812;9.232;2023-02-28T09:15:23;1.80;99.90
4461;DHT22;2243;48.812;9.232;2023-02-28T09:17:54;1.90;99.90
4461;DHT22;2243;48.812;9.232;2023-02-28T09:20:25;2.00;99.90
4461;DHT22;2243;48.812;9.232;2023-02-28T09:22:56;2.10;99.90
4461;DHT22;2243;48.812;9.232;2023-02-28T09:25:27;2.30;99.90
4461;DHT22;2243;48.812;9.232;2023-02-28T09:27:58;2.20;99.90
4461;DHT22;2243;48.812;9.232;2023-02-28T09:30:29;2.30;99.90
4461;DHT22;2243;48.812;9.232;2023-02-28T09:33:01;2.30;99.90
4461;DHT22;2243;48.812;9.232;2023-02-28T09:35:32;2.30;99.90
4461;DHT22;2243;48.812;9.232;2023-02-28T09:38:03;2.30;99.90
4461;DHT22;2243;48.812;9.232;2023-02-28T09:40:37;2.30;99.90
4461;DHT22;2243;48.812;9.232;2023-02-28T09:43:14;2.20;99.90
4461;DHT22;2243;48.812;9.232;2023-02-28T09:45:52;2.30;99.90
4461;DHT22;2243;48.812;9.232;2023-02-28T09:48:35;2.40;99.90
4461;DHT22;2243;48.812;9.232;2023-02-28T09:54:05;2.50;99.90
4461;DHT22;2243;48.812;9.232;2023-02-28T09:56:39;2.60;99.70
4461;DHT22;2243;48.812;9.232;2023-02-28T10:04:55;2.70;99.30
4461;DHT22;2243;48.812;9.232;2023-02-28T10:10:42;2.90;99.20
4461;DHT22;2243;48.812;9.232;2023-02-28T10:13:35;2.90;99.20
4461;DHT22;2243;48.812;9.232;2023-02-28T10:19:39;3.00;98.80
4461;DHT22;2243;48.812;9.232;2023-02-28T10:22:33;3.00;98.80
4461;DHT22;2243;48.812;9.232;2023-02-28T10:25:22;3.10;98.70
4461;DHT22;2243;48.812;9.232;2023-02-28T10:28:11;3.20;98.50
4461;DHT22;2243;48.812;9.232;2023-02-28T10:30:49;3.30;98.50
4461;DHT22;2243;48.812;9.232;2023-02-28T10:33:29;3.50;98.20
4461;DHT22;2243;48.812;9.232;2023-02-28T10:36:02;3.50;98.30
4461;DHT22;2243;48.812;9.232;2023-02-28T10:38:37;3.50;97.90
4461;DHT22;2243;48.812;9.232;2023-02-28T10:41:13;3.40;98.00
4461;DHT22;2243;48.812;9.232;2023-02-28T10:43:45;3.40;98.50
4461;DHT22;2243;48.812;9.232;2023-02-28T10:46:18;3.50;98.30
4461;DHT22;2243;48.812;9.232;2023-02-28T10:49:03;3.60;98.20
4461;DHT22;2243;48.812;9.232;2023-02-28T10:51:39;3.70;97.80
4461;DHT22;2243;48.812;9.232;2023-02-28T10:54:31;3.90;97.60
4461;DHT22;2243;48.812;9.232;2023-02-28T10:57:23;3.90;97.30
4461;DHT22;2243;48.812;9.232;2023-02-28T11:00:13;4.00;97.10
4461;DHT22;2243;48.812;9.232;2023-02-28T11:02:45;4.20;97.20
4461;DHT22;2243;48.812;9.232;2023-02-28T11:05:30;4.50;96.80
4461;DHT22;2243;48.812;9.232;2023-02-28T11:08:12;4.80;96.50
4461;DHT22;2243;48.812;9.232;2023-02-28T11:10:57;5.50;96.00
4461;DHT22;2243;48.812;9.232;2023-02-28T11:13:35;6.00;94.90
4461;DHT22;2243;48.812;9.232;2023-02-28T11:16:11;6.10;94.30
4461;DHT22;2243;48.812;9.232;2023-02-28T11:18:48;5.70;93.90
4461;DHT22;2243;48.812;9.232;2023-02-28T11:21:25;6.10;94.00
4461;DHT22;2243;48.812;9.232;2023-02-28T11:24:24;6.00;93.60
4461;DHT22;2243;48.812;9.232;2023-02-28T11:26:59;6.30;93.90
4461;DHT22;2243;48.812;9.232;2023-02-28T11:29:32;6.40;93.40
4461;DHT22;2243;48.812;9.232;2023-02-28T11:32:19;7.00;92.80
4461;DHT22;2243;48.812;9.232;2023-02-28T11:37:40;6.90;92.50
4461;DHT22;2243;48.812;9.232;2023-02-28T11:40:16;6.90;92.40
4461;DHT22;2243;48.812;9.232;2023-02-28T11:46:02;7.10;91.70
4461;DHT22;2243;48.812;9.232;2023-02-28T11:52:04;7.20;91.90
4461;DHT22;2243;48.812;9.232;2023-02-28T12:12:23;7.50;91.40
4461;DHT22;2243;48.812;9.232;2023-02-28T12:21:30;7.50;90.20
4461;DHT22;2243;48.812;9.232;2023-02-28T12:24:34;7.60;90.40
4461;DHT22;2243;48.812;9.232;2023-02-28T12:27:17;7.60;90.70
4461;DHT22;2243;48.812;9.232;2023-02-28T12:29:54;7.90;90.30
4461;DHT22;2243;48.812;9.232;2023-02-28T12:32:35;8.10;89.70
4461;DHT22;2243;48.812;9.232;2023-02-28T12:37:44;8.20;90.00
4461;DHT22;2243;48.812;9.232;2023-02-28T12:40:47;8.30;87.80
4461;DHT22;2243;48.812;9.232;2023-02-28T12:44:04;8.30;89.00
4461;DHT22;2243;48.812;9.232;2023-02-28T12:46:44;8.40;88.10
4461;DHT22;2243;48.812;9.232;2023-02-28T12:50:09;8.50;88.00
4461;DHT22;2243;48.812;9.232;2023-02-28T13:10:04;8.60;85.40
4461;DHT22;2243;48.812;9.232;2023-02-28T13:12:48;9.00;84.40
4461;DHT22;2243;48.812;9.232;2023-02-28T13:15:26;9.00;85.30
4461;DHT22;2243;48.812;9.232;2023-02-28T13:17:59;9.00;84.50
4461;DHT22;2243;48.812;9.232;2023-02-28T13:20:35;8.90;84.90
4461;DHT22;2243;48.812;9.232;2023-02-28T13:23:37;8.80;84.70
4461;DHT22;2243;48.812;9.232;2023-02-28T13:26:11;9.00;84.50
4461;DHT22;2243;48.812;9.232;2023-02-28T13:29:27;8.90;84.00
4461;DHT22;2243;48.812;9.232;2023-02-28T13:47:39;9.60;81.60
4461;DHT22;2243;48.812;9.232;2023-02-28T13:50:40;9.60;81.90
4461;DHT22;2243;48.812;9.232;2023-02-28T13:58:57;9.70;80.60
4461;DHT22;2243;48.812;9.232;2023-02-28T14:05:19;9.60;80.80
4461;DHT22;2243;48.812;9.232;2023-02-28T14:07:58;9.70;79.70
4461;DHT22;2243;48.812;9.232;2023-02-28T14:10:47;9.70;80.00
4461;DHT22;2243;48.812;9.232;2023-02-28T14:15:59;9.30;80.70
4461;DHT22;2243;48.812;9.232;2023-02-28T14:18:36;9.20;81.50
4461;DHT22;2243;48.812;9.232;2023-02-28T14:21:27;9.20;80.70
4461;DHT22;2243;48.812;9.232;2023-02-28T14:32:35;10.10;78.50
4461;DHT22;2243;48.812;9.232;2023-02-28T14:38:31;10.20;78.90
4461;DHT22;2243;48.812;9.232;2023-02-28T14:41:14;10.30;78.90
4461;DHT22;2243;48.812;9.232;2023-02-28T14:43:56;10.30;79.10
4461;DHT22;2243;48.812;9.232;2023-02-28T14:46:39;10.30;78.30
4461;DHT22;2243;48.812;9.232;2023-02-28T14:49:34;10.20;78.60
4461;DHT22;2243;48.812;9.232;2023-02-28T14:52:23;10.10;78.40
4461;DHT22;2243;48.812;9.232;2023-02-28T14:54:57;9.80;79.30
4461;DHT22;2243;48.812;9.232;2023-02-28T14:57:35;9.80;78.50
4461;DHT22;2243;48.812;9.232;2023-02-28T15:02:49;9.80;79.00
4461;DHT22;2243;48.812;9.232;2023-02-28T15:08:14;9.10;80.10
4461;DHT22;2243;48.812;9.232;2023-02-28T15:11:00;9.20;80.30
4461;DHT22;2243;48.812;9.232;2023-02-28T15:16:20;9.20;80.60
4461;DHT22;2243;48.812;9.232;2023-02-28T15:19:02;9.10;80.30
4461;DHT22;2243;48.812;9.232;2023-02-28T15:21:38;8.60;81.70
4461;DHT22;2243;48.812;9.232;2023-02-28T15:26:57;8.50;82.60
4461;DHT22;2243;48.812;9.232;2023-02-28T15:29:32;8.20;82.90
4461;DHT22;2243;48.812;9.232;2023-02-28T15:32:07;8.10;83.40
4461;DHT22;2243;48.812;9.232;2023-02-28T15:34:52;8.20;83.60
4461;DHT22;2243;48.812;9.232;2023-02-28T15:43:05;7.80;84.60
4461;DHT22;2243;48.812;9.232;2023-02-28T15:46:09;7.80;85.00
4461;DHT22;2243;48.812;9.232;2023-02-28T15:48:47;7.80;85.30
4461;DHT22;2243;48.812;9.232;2023-02-28T15:51:32;7.80;84.90
4461;DHT22;2243;48.812;9.232;2023-02-28T15:54:13;7.70;84.90
4461;DHT22;2243;48.812;9.232;2023-02-28T15:56:51;7.60;85.10
4461;DHT22;2243;48.812;9.232;2023-02-28T15:59:28;7.50;85.60
4461;DHT22;2243;48.812;9.232;2023-02-28T16:05:22;7.50;85.40
4461;DHT22;2243;48.812;9.232;2023-02-28T16:08:14;7.50;85.90
4461;DHT22;2243;48.812;9.232;2023-02-28T16:10:45;7.50;86.00
4461;DHT22;2243;48.812;9.232;2023-02-28T16:13:16;7.50;85.70
4461;DHT22;2243;48.812;9.232;2023-02-28T16:15:47;7.40;85.80
4461;DHT22;2243;48.812;9.232;2023-02-28T16:18:20;7.50;86.20
4461;DHT22;2243;48.812;9.232;2023-02-28T16:20:51;7.50;85.70
4461;DHT22;2243;48.812;9.232;2023-02-28T16:23:22;7.60;86.30
4461;DHT22;2243;48.812;9.232;2023-02-28T16:25:53;7.60;85.70
4461;DHT22;2243;48.812;9.232;2023-02-28T16:28:29;7.60;85.90
4461;DHT22;2243;48.812;9.232;2023-02-28T16:31:05;7.50;85.90
4461;DHT22;2243;48.812;9.232;2023-02-28T16:33:37;7.40;86.30
4461;DHT22;2243;48.812;9.232;2023-02-28T16:36:16;7.40;87.10
4461;DHT22;2243;48.812;9.232;2023-02-28T16:38:50;7.40;86.80
4461;DHT22;2243;48.812;9.232;2023-02-28T16:41:26;7.60;86.30
4461;DHT22;2243;48.812;9.232;2023-02-28T16:43:59;7.50;85.70
4461;DHT22;2243;48.812;9.232;2023-02-28T16:46:34;7.40;86.40
4461;DHT22;2243;48.812;9.232;2023-02-28T16:49:12;7.40;86.50
4461;DHT22;2243;48.812;9.232;2023-02-28T16:51:43;7.40;86.50
4461;DHT22;2243;48.812;9.232;2023-02-28T16:54:14;7.30;86.50
4461;DHT22;2243;48.812;9.232;2023-02-28T16:56:47;7.30;87.00
4461;DHT22;2243;48.812;9.232;2023-02-28T16:59:22;7.10;87.20
4461;DHT22;2243;48.812;9.232;2023-02-28T17:01:55;7.10;87.10
4461;DHT22;2243;48.812;9.232;2023-02-28T17:04:28;6.90;87.40
4461;DHT22;2243;48.812;9.232;2023-02-28T17:06:59;6.80;88.10
4461;DHT22;2243;48.812;9.232;2023-02-28T17:09:30;6.50;89.00
4461;DHT22;2243;48.812;9.232;2023-02-28T17:12:12;6.40;89.50
4461;DHT22;2243;48.812;9.232;2023-02-28T17:14:44;6.20;90.00
4461;DHT22;2243;48.812;9.232;2023-02-28T17:17:21;6.10;90.40
4461;DHT22;2243;48.812;9.232;2023-02-28T17:19:52;5.90;90.60
4461;DHT22;2243;48.812;9.232;2023-02-28T17:22:23;5.80;90.90
4461;DHT22;2243;48.812;9.232;2023-02-28T17:24:56;5.70;91.00
4461;DHT22;2243;48.812;9.232;2023-02-28T17:27:28;5.60;91.20
4461;DHT22;2243;48.812;9.232;2023-02-28T17:29:59;5.50;91.40
4461;DHT22;2243;48.812;9.232;2023-02-28T17:32:31;5.50;91.70
4461;DHT22;2243;48.812;9.232;2023-02-28T17:35:02;5.50;91.90
4461;DHT22;2243;48.812;9.232;2023-02-28T17:37:33;5.40;91.90
4461;DHT22;2243;48.812;9.232;2023-02-28T17:40:09;5.30;92.20
4461;DHT22;2243;48.812;9.232;2023-02-28T17:42:45;5.20;92.50
4461;DHT22;2243;48.812;9.232;2023-02-28T17:45:16;5.00;92.80
4461;DHT22;2243;48.812;9.232;2023-02-28T17:47:49;4.90;92.90
4461;DHT22;2243;48.812;9.232;2023-02-28T17:50:21;4.80;93.20
4461;DHT22;2243;48.812;9.232;2023-02-28T17:52:52;4.80;93.20
4461;DHT22;2243;48.812;9.232;2023-02-28T17:55:23;4.80;93.20
4461;DHT22;2243;48.812;9.232;2023-02-28T17:57:54;4.80;93.40
4461;DHT22;2243;48.812;9.232;2023-02-28T18:00:25;4.70;93.60
4461;DHT22;2243;48.812;9.232;2023-02-28T18:02:56;4.60;93.70
4461;DHT22;2243;48.812;9.232;2023-02-28T18:05:27;4.50;93.70
4461;DHT22;2243;48.812;9.232;2023-02-28T18:07:58;4.30;94.10
4461;DHT22;2243;48.812;9.232;2023-02-28T18:10:29;4.20;94.30
4461;DHT22;2243;48.812;9.232;2023-02-28T18:13:03;4.20;94.60
4461;DHT22;2243;48.812;9.232;2023-02-28T18:15:34;4.10;94.50
4461;DHT22;2243;48.812;9.232;2023-02-28T18:18:05;4.10;94.70
4461;DHT22;2243;48.812;9.232;2023-02-28T18:20:37;4.10;94.60
4461;DHT22;2243;48.812;9.232;2023-02-28T18:23:08;4.10;94.70
4461;DHT22;2243;48.812;9.232;2023-02-28T18:25:39;3.90;95.00
4461;DHT22;2243;48.812;9.232;2023-02-28T18:28:11;3.80;95.20
4461;DHT22;2243;48.812;9.232;2023-02-28T18:30:42;3.70;95.40
4461;DHT22;2243;48.812;9.232;2023-02-28T18:33:12;3.60;95.60
4461;DHT22;2243;48.812;9.232;2023-02-28T18:35:43;3.60;95.90
4461;DHT22;2243;48.812;9.232;2023-02-28T18:38:16;3.50;95.90
4461;DHT22;2243;48.812;9.232;2023-02-28T18:40:57;3.50;95.90
4461;DHT22;2243;48.812;9.232;2023-02-28T18:43:31;3.40;96.10
4461;DHT22;2243;48.812;9.232;2023-02-28T18:46:05;3.20;96.40
4461;DHT22;2243;48.812;9.232;2023-02-28T18:48:37;3.20;96.60
4461;DHT22;2243;48.812;9.232;2023-02-28T18:51:10;3.20;96.80
4461;DHT22;2243;48.812;9.232;2023-02-28T18:53:43;3.00;97.20
4461;DHT22;2243;48.812;9.232;2023-02-28T18:56:19;3.00;97.20
4461;DHT22;2243;48.812;9.232;2023-02-28T18:58:52;2.90;97.50
4461;DHT22;2243;48.812;9.232;2023-02-28T19:01:28;2.80;97.50
4461;DHT22;2243;48.812;9.232;2023-02-28T19:04:02;2.80;97.80
4461;DHT22;2243;48.812;9.232;2023-02-28T19:06:34;2.80;97.90
4461;DHT22;2243;48.812;9.232;2023-02-28T19:09:07;2.70;98.00
4461;DHT22;2243;48.812;9.232;2023-02-28T19:11:38;2.60;98.30
4461;DHT22;2243;48.812;9.232;2023-02-28T19:14:09;2.60;98.40
4461;DHT22;2243;48.812;9.232;2023-02-28T19:16:40;2.50;98.60
4461;DHT22;2243;48.812;9.232;2023-02-28T19:19:11;2.40;98.80
4461;DHT22;2243;48.812;9.232;2023-02-28T19:21:43;2.40;99.00
4461;DHT22;2243;48.812;9.232;2023-02-28T19:24:14;2.50;99.10
4461;DHT22;2243;48.812;9.232;2023-02-28T19:26:45;2.50;99.20
4461;DHT22;2243;48.812;9.232;2023-02-28T19:29:16;2.50;99.00
4461;DHT22;2243;48.812;9.232;2023-02-28T19:31:47;2.50;99.00
4461;DHT22;2243;48.812;9.232;2023-02-28T19:34:18;2.50;99.00
4461;DHT22;2243;48.812;9.232;2023-02-28T19:36:50;2.50;99.10
4461;DHT22;2243;48.812;9.232;2023-02-28T19:39:21;2.40;99.20
4461;DHT22;2243;48.812;9.232;2023-02-28T19:41:52;2.40;99.50